Airfield :
LOGIN :

Register | Disclaimer

   EN    FR    IT 

 










Legend :    VFR   Marginal VFR   IFR   Intensive IFR   Very Intensive IFR
Visi :
Ceiling :
>= 8 km
>= 3000ft
5 to 8 km
1000 to 3000 ft
1500m to 5 km
500 to 1000 ft
800 to 1500m
200 to 500 ft
< 800m
< 200 ft
Symbols :   Thunderstorms  Fog  Heavy snow  Heavy precipitations  Wind > 20 kt
SIGMETs :     Misc.  Thunderstorms  Icing  Turbulence  Mountain Waves  Volcanic Ashes






- Airport Elevation : 1768 ft


LEHC - Huesca Pirineos

CURRENT METAR :
  • 230100Z AUTO VRB02KT 9999 BKN065 04/04 Q1020

EXPIRED METARs :
  • 230030Z AUTO VRB01KT 9999 -SHRA FEW028 SCT044 BKN050 04/04 Q1020
  • 230000Z AUTO 06006KT 020V120 9999 FEW046 BKN056 BKN066 04/04 Q1020
  • 222330Z AUTO 05005KT 020V080 9999 -RA SCT040 OVC050 04/04 Q1020 RERA
  • 222300Z AUTO 05003KT 010V080 9999 RA OVC039 04/04 Q1021
  • 222230Z AUTO 04003KT 350V070 9999 -RA BKN037 OVC045 04/04 Q1020 RERA

TAF TAF LEHC
Valid from the 22 at 15:00 until the 23 at 15:00 UTC


221400Z 2215/2315 VRB05KT 9999 BKN030 TX08/2313Z TN04/2306Z
TEMPO 2215/2310 4000 SHRA FEW030TCU
TEMPO 2215/2218 2000 TSRA FEW030CB
TEMPO 2303/2306 2000 TSRA FEW030CB



MET'MAP, your aeronautical weather chart ! - Copyright ORBIFLY December 2007 - Disclaimer

ORBIFLY MET'MAP TEAM :

Programming & Development : Alexandra Zaïnal
Concept & original design : Baudouin d'Aumeries
Assistance for programming : Marc-Olivier Méhu
Technical & hardware support : Manuel Goepfert

Contact : metmap@orbifly.com




SOURCES & CREDITS :

   NOAA